アダック島 の空港の天気 - METARとTAF

アダック空港 ( PADK / ADK ) - アメリカ アラスカ州アダック島
飛行場実況気象(Metar)
観測時間08/17 03:36 AKDT (08/17 11:36 UTC)
風向・風速東南東 4m/s
視程6450m
天気現象もや
全天を覆う雲 雲底高度 240m
気温13℃
湿度94%
気圧1021hPa
METARPADK 171136Z AUTO 12007KT 4SM BR OVC008 13/12 A3015 RMK AO2 CIG 007V012
過去の天気等 Google飛行場航空写真 Wunderground天気予報

過去48時間のMETAR

飛行場予報(TAF)
データがありません